Terminal Aerodrome Forecast
Issued by NWS

Home | Current Version | Previous Version | Text Only | Print | Product List | Glossary On
Versions: 1 2 3 4 5 6 7 8 9 10 11 12 13 14 15
000
FTUS46 KPDT 232000 AAA
TAFALW
TAF AMD
KALW 232004Z 2320/2418 29010G20KT P6SM -SHRA SCT015 BKN020 OVC030
     FM240000 20010KT P6SM BKN070 BKN200
     FM240900 15006KT P6SM SCT070 BKN200=

USA.gov is the U.S. government's official web portal to all federal, state and local government web resources and services.